This is the latest recevied weather packets stored in our database for station/object DL2AKT-13. If no packets are shown the sender has not sent any weather packets the latest 10 day(s).
| Time | Temp. | Humidity | Pressure | Rain* | Wind** | Luminosity | Snow |
|---|---|---|---|---|---|---|---|
| 1777582826 | 10° C | 57% | 1029.8 hPa | 0 mm | - | - | - |
| 1777562112 | 15.56° C | 38% | 1029.3 hPa | 0 mm | - | - | - |
| 1777560309 | 15.56° C | 38% | 1029.4 hPa | 0 mm | - | - | - |
| 1777547748 | 13.33° C | 30% | 1031 hPa | 0 mm | - | - | - |
| 1777546846 | 13.33° C | 33% | 1031.1 hPa | 0 mm | - | - | - |
| 1777537824 | 9.44° C | 42% | 1032 hPa | 0 mm | - | - | - |
| 1777529794 | 5° C | 52% | 1032 hPa | 0 mm | - | - | - |
| 1777528858 | 4.44° C | 52% | 1032 hPa | 0 mm | - | - | - |
| 1777527017 | 3.33° C | 54% | 1031.7 hPa | 0 mm | - | - | - |
| 1777518901 | 2.78° C | 54% | 1030.9 hPa | 0 mm | - | - | - |
| 1777517159 | 2.78° C | 54% | 1030.9 hPa | 0 mm | - | - | - |
| 1777514452 | 2.78° C | 53% | 1030.9 hPa | 0 mm | - | - | - |
| 1777504532 | 4.44° C | 52% | 1030.5 hPa | 0 mm | - | - | - |
| 1777501825 | 5° C | 50% | 1030.3 hPa | 0 mm | - | - | - |
| 1777500922 | 5° C | 49% | 1030.1 hPa | 0 mm | - | - | - |
| 1777494644 | 5.56° C | 51% | 1029.5 hPa | 0 mm | - | - | - |
| 1777492812 | 7.22° C | 46% | 1029.3 hPa | 0 mm | - | - | - |
| 1777484762 | 9.44° C | 39% | 1027.9 hPa | 0 mm | - | - | - |
| 1777482955 | 11.11° C | 37% | 1027.7 hPa | 0 mm | - | - | - |
| 1777482072 | 11.11° C | 37% | 1027.5 hPa | 0 mm | - | - | - |
* Rain latest hour (hover to see other rain measurements)
** Current wind speed in m/s (hover to see current wind gust speed)